Time;durP1;ratioP1;P1;durP2;ratioP2;P2;SDS_P1;SDS_P2;PMS_P1;PMS_P2;Temp;Humidity;BMP_temperature;BMP_pressure;BME280_temperature;BME280_humidity;BME280_pressure;Samples;Min_cycle;Max_cycle;Signal;HPM_P1;HPM_P2
2021/08/19 00:02:25;;;;;;;4.68;1.75;;;18.50;98.20;;;;;;5071628;28;20040;-71
2021/08/19 00:04:51;;;;;;;3.33;1.70;;;18.60;98.10;;;;;;5056466;28;20037;-71
2021/08/19 00:07:18;;;;;;;3.85;1.75;;;18.70;97.80;;;;;;5056888;28;20037;-71
2021/08/19 00:09:44;;;;;;;4.18;2.03;;;18.70;98.10;;;;;;5069518;28;20114;-71
2021/08/19 00:12:09;;;;;;;4.82;2.30;;;18.70;98.00;;;;;;5069685;28;20079;-71
2021/08/19 00:14:36;;;;;;;3.88;1.70;;;18.80;97.80;;;;;;5069542;28;20064;-71
2021/08/19 00:17:03;;;;;;;3.92;1.75;;;19.00;97.90;;;;;;5069409;28;20072;-71
2021/08/19 00:19:30;;;;;;;4.95;2.65;;;19.00;97.60;;;;;;5068956;28;20040;-71
2021/08/19 00:21:55;;;;;;;3.85;1.65;;;19.20;97.60;;;;;;5060828;28;20417;-71
2021/08/19 00:24:21;;;;;;;2.95;1.42;;;19.20;97.60;;;;;;5071002;28;20031;-71
2021/08/19 00:26:47;;;;;;;3.78;2.05;;;19.20;97.50;;;;;;5071127;28;20120;-71
2021/08/19 00:29:12;;;;;;;10.50;3.10;;;19.20;97.30;;;;;;5071016;28;20052;-71
2021/08/19 00:31:38;;;;;;;4.65;1.88;;;19.20;97.40;;;;;;5071122;28;20048;-71
2021/08/19 00:34:04;;;;;;;4.28;1.98;;;19.30;97.30;;;;;;5070918;28;20078;-71
2021/08/19 00:36:30;;;;;;;3.92;1.83;;;19.20;97.30;;;;;;5070899;28;20390;-71
2021/08/19 00:38:56;;;;;;;4.55;2.17;;;19.20;97.40;;;;;;5066442;28;20028;-71
2021/08/19 00:41:22;;;;;;;5.00;2.08;;;19.30;97.20;;;;;;5069913;28;20190;-71
2021/08/19 00:43:49;;;;;;;6.03;1.90;;;19.40;97.40;;;;;;5068837;28;20044;-71
2021/08/19 00:46:28;;;;;;;8.07;1.90;;;19.40;97.20;;;;;;5069187;28;20056;-71
2021/08/19 00:48:57;;;;;;;3.53;1.80;;;19.60;96.60;;;;;;5049239;28;20499;-71
2021/08/19 00:51:23;;;;;;;3.65;1.65;;;19.70;96.60;;;;;;5049237;28;20554;-71
2021/08/19 00:53:48;;;;;;;4.03;1.75;;;19.70;96.80;;;;;;5068049;28;20029;-71
2021/08/19 00:56:14;;;;;;;4.45;2.42;;;19.70;96.90;;;;;;5069377;28;20112;-71
2021/08/19 00:58:41;;;;;;;3.80;1.42;;;19.80;97.00;;;;;;5070996;28;20360;-71
2021/08/19 01:01:07;;;;;;;5.32;1.75;;;19.70;97.30;;;;;;5070181;28;20044;-71
2021/08/19 01:03:33;;;;;;;4.55;2.00;;;19.60;96.90;;;;;;5067844;28;20032;-70
2021/08/19 01:05:59;;;;;;;5.53;1.67;;;19.60;96.60;;;;;;5067923;28;20039;-71
2021/08/19 01:08:24;;;;;;;3.92;1.80;;;19.50;96.70;;;;;;5069178;28;20462;-71
2021/08/19 01:10:50;;;;;;;5.70;2.08;;;19.50;96.80;;;;;;5068330;28;20071;-71
2021/08/19 01:13:16;;;;;;;5.93;1.80;;;19.30;97.30;;;;;;5068776;28;20044;-71
2021/08/19 01:15:42;;;;;;;3.88;2.50;;;19.20;97.60;;;;;;5069005;28;20474;-71
2021/08/19 01:18:07;;;;;;;5.18;1.80;;;19.10;97.80;;;;;;5068962;28;20490;-71
2021/08/19 01:20:33;;;;;;;3.28;1.60;;;19.00;97.90;;;;;;5069028;28;20037;-71
2021/08/19 01:23:01;;;;;;;4.63;1.80;;;18.90;98.00;;;;;;5068743;28;20035;-71
2021/08/19 01:25:27;;;;;;;4.90;1.80;;;18.90;97.80;;;;;;5052702;28;20451;-71
2021/08/19 01:27:54;;;;;;;4.43;1.88;;;18.90;97.80;;;;;;5070269;28;20131;-71
2021/08/19 01:30:24;;;;;;;5.03;1.85;;;18.90;98.00;;;;;;5071079;28;20059;-71
2021/08/19 01:32:50;;;;;;;4.55;1.90;;;18.90;98.10;;;;;;5074093;28;20036;-71
2021/08/19 01:35:23;;;;;;;4.80;2.08;;;18.90;97.80;;;;;;5074259;28;20032;-71
2021/08/19 01:37:49;;;;;;;3.75;1.77;;;19.00;97.70;;;;;;5074439;28;20032;-71
2021/08/19 01:40:14;;;;;;;3.45;1.90;;;19.00;97.70;;;;;;5074397;28;20096;-71
2021/08/19 01:42:45;;;;;;;3.33;1.70;;;19.00;97.60;;;;;;5074248;28;20116;-71
2021/08/19 01:45:12;;;;;;;6.15;1.80;;;18.90;97.70;;;;;;5073406;28;20037;-71
2021/08/19 01:47:39;;;;;;;4.47;1.73;;;18.80;97.80;;;;;;5074494;28;20048;-71
2021/08/19 01:50:05;;;;;;;3.38;1.42;;;18.70;98.00;;;;;;5073680;28;20043;-71
2021/08/19 01:52:31;;;;;;;4.97;1.85;;;18.70;98.00;;;;;;5074009;28;20036;-71
2021/08/19 01:54:57;;;;;;;4.47;1.63;;;18.70;98.00;;;;;;5073432;28;20047;-71
2021/08/19 01:57:23;;;;;;;4.57;1.90;;;18.70;98.00;;;;;;5073811;28;20403;-71
2021/08/19 01:59:50;;;;;;;5.45;2.20;;;18.60;97.80;;;;;;5074202;28;20116;-71
2021/08/19 02:02:16;;;;;;;4.97;1.90;;;18.60;97.90;;;;;;5074384;28;20036;-71
2021/08/19 02:04:41;;;;;;;3.90;1.77;;;18.70;97.90;;;;;;5073487;28;20123;-71
2021/08/19 02:07:07;;;;;;;4.38;1.73;;;18.60;98.10;;;;;;5073938;28;20041;-71
2021/08/19 02:09:33;;;;;;;5.80;1.90;;;18.60;98.10;;;;;;5073770;28;20041;-71
2021/08/19 02:11:58;;;;;;;5.95;1.83;;;18.60;98.00;;;;;;5073588;28;20039;-71
2021/08/19 02:14:24;;;;;;;5.03;2.10;;;18.60;98.00;;;;;;5073705;28;20482;-71
2021/08/19 02:16:50;;;;;;;4.00;2.10;;;18.70;98.00;;;;;;5073462;28;20028;-71
2021/08/19 02:19:16;;;;;;;4.25;1.75;;;18.60;97.80;;;;;;5073182;28;20041;-71
2021/08/19 02:21:41;;;;;;;4.28;2.00;;;18.50;97.90;;;;;;5073720;28;20090;-71
2021/08/19 02:24:07;;;;;;;4.65;2.15;;;18.60;98.10;;;;;;5073525;28;20082;-71
2021/08/19 02:26:33;;;;;;;3.97;1.88;;;18.50;98.10;;;;;;5073103;28;20047;-71
2021/08/19 02:28:59;;;;;;;4.13;1.98;;;18.60;98.10;;;;;;5073140;28;20063;-71
2021/08/19 02:31:24;;;;;;;3.65;1.80;;;18.50;98.10;;;;;;5073410;28;20059;-71
2021/08/19 02:33:50;;;;;;;4.07;1.70;;;18.50;98.20;;;;;;5073207;28;20372;-71
2021/08/19 02:36:16;;;;;;;4.28;1.73;;;18.60;98.20;;;;;;5072698;28;20031;-71
2021/08/19 02:38:41;;;;;;;4.28;2.13;;;18.50;98.10;;;;;;5073183;28;20439;-71
2021/08/19 02:41:07;;;;;;;5.70;2.47;;;18.50;98.10;;;;;;5072920;28;20498;-71
2021/08/19 02:43:38;;;;;;;4.40;1.88;;;18.60;98.00;;;;;;5073234;28;20110;-71
2021/08/19 02:46:04;;;;;;;4.00;2.00;;;18.60;98.10;;;;;;5073014;28;20044;-71
2021/08/19 02:48:29;;;;;;;3.60;1.73;;;18.50;98.10;;;;;;5073032;28;20048;-71
2021/08/19 02:50:55;;;;;;;4.35;1.65;;;18.50;98.20;;;;;;5073020;28;20040;-71
2021/08/19 02:53:21;;;;;;;5.38;2.13;;;18.50;98.20;;;;;;5069173;28;20059;-71
2021/08/19 02:55:46;;;;;;;4.47;2.13;;;18.60;98.20;;;;;;5072357;28;20483;-71
2021/08/19 02:58:12;;;;;;;3.80;1.80;;;18.60;98.00;;;;;;5073111;28;20435;-71
2021/08/19 03:00:38;;;;;;;3.58;1.70;;;18.70;98.00;;;;;;5072959;28;20033;-71
2021/08/19 03:03:03;;;;;;;4.95;2.30;;;18.70;97.90;;;;;;5065902;28;20037;-71
2021/08/19 03:05:29;;;;;;;5.13;2.30;;;18.60;98.00;;;;;;5060374;28;20386;-71
2021/08/19 03:07:55;;;;;;;5.55;2.25;;;18.50;98.30;;;;;;5064746;28;20050;-71
2021/08/19 03:10:21;;;;;;;5.90;2.30;;;18.40;98.60;;;;;;5063616;28;20059;-71
2021/08/19 03:12:46;;;;;;;6.43;2.33;;;18.40;98.60;;;;;;5062897;28;20968;-71
2021/08/19 03:15:12;;;;;;;3.92;1.80;;;18.40;98.60;;;;;;5063861;28;20041;-71
2021/08/19 03:17:38;;;;;;;3.72;1.83;;;18.50;98.50;;;;;;5063304;28;20043;-71
2021/08/19 03:20:04;;;;;;;5.25;1.58;;;18.50;98.70;;;;;;5063799;28;20115;-71
2021/08/19 03:22:30;;;;;;;4.82;1.92;;;18.40;98.50;;;;;;5062573;28;20642;-71
2021/08/19 03:24:56;;;;;;;3.70;2.03;;;18.40;98.60;;;;;;5064032;28;20102;-71
2021/08/19 03:27:22;;;;;;;4.70;1.80;;;18.50;98.80;;;;;;5064339;28;20037;-71
2021/08/19 03:29:48;;;;;;;3.75;1.67;;;18.60;98.90;;;;;;5064589;28;20417;-71
2021/08/19 03:32:14;;;;;;;4.38;2.10;;;18.70;98.60;;;;;;5064912;28;20039;-71
2021/08/19 03:34:39;;;;;;;5.80;2.20;;;18.80;98.80;;;;;;5064875;28;20036;-71
2021/08/19 03:37:07;;;;;;;4.40;2.50;;;18.80;98.90;;;;;;5064385;28;20037;-71
2021/08/19 03:39:35;;;;;;;3.75;1.92;;;18.80;98.90;;;;;;5064963;28;20666;-71
2021/08/19 03:42:01;;;;;;;4.97;1.90;;;18.70;98.90;;;;;;5064493;28;20042;-71
2021/08/19 03:44:26;;;;;;;4.35;2.45;;;18.60;99.00;;;;;;5064533;28;20033;-71
2021/08/19 03:46:53;;;;;;;4.47;2.30;;;18.60;99.00;;;;;;5063742;28;20060;-71
2021/08/19 03:49:18;;;;;;;3.60;1.80;;;18.60;99.40;;;;;;5064484;28;20082;-71
2021/08/19 03:51:44;;;;;;;5.60;2.67;;;18.60;99.70;;;;;;5064228;28;20044;-71
2021/08/19 03:54:10;;;;;;;4.10;2.10;;;18.50;99.50;;;;;;5063754;28;20033;-71
2021/08/19 03:56:39;;;;;;;6.20;1.90;;;18.50;99.90;;;;;;5064110;28;20403;-71
2021/08/19 03:59:09;;;;;;;4.53;1.98;;;18.50;99.90;;;;;;5064029;28;20020;-71
2021/08/19 04:01:35;;;;;;;4.05;1.60;;;18.60;99.90;;;;;;5064046;28;20040;-71
2021/08/19 04:04:01;;;;;;;3.30;1.83;;;18.50;99.90;;;;;;5064586;28;20066;-71
2021/08/19 04:06:27;;;;;;;4.50;1.85;;;18.50;99.70;;;;;;5063618;28;20074;-71
2021/08/19 04:08:53;;;;;;;4.97;2.08;;;18.20;99.90;;;;;;5063721;28;20052;-71
2021/08/19 04:11:18;;;;;;;3.95;2.10;;;18.20;99.80;;;;;;5063900;28;20510;-71
2021/08/19 04:13:44;;;;;;;3.88;2.28;;;18.40;99.30;;;;;;5064337;28;20045;-71
2021/08/19 04:16:10;;;;;;;5.80;2.47;;;18.30;99.90;;;;;;5064315;28;20037;-71
2021/08/19 04:18:36;;;;;;;4.63;1.95;;;18.10;99.90;;;;;;5063861;28;20036;-71
2021/08/19 04:21:02;;;;;;;4.55;1.90;;;18.10;99.90;;;;;;5063260;28;20036;-71
2021/08/19 04:23:28;;;;;;;5.80;2.28;;;17.90;99.90;;;;;;5064055;28;20090;-71
2021/08/19 04:25:53;;;;;;;4.68;2.05;;;17.90;99.90;;;;;;5064341;28;20045;-71
2021/08/19 04:28:19;;;;;;;4.25;1.80;;;17.90;99.90;;;;;;5063401;28;20044;-71
2021/08/19 04:30:45;;;;;;;3.33;1.65;;;17.90;99.90;;;;;;5063349;28;20503;-71
2021/08/19 04:33:10;;;;;;;3.47;1.90;;;18.00;99.90;;;;;;5063693;28;20040;-71
2021/08/19 04:35:37;;;;;;;3.50;1.75;;;18.00;99.90;;;;;;5063744;28;20033;-71
2021/08/19 04:38:02;;;;;;;4.40;1.80;;;18.10;99.90;;;;;;5063740;28;20513;-71
2021/08/19 04:40:28;;;;;;;4.15;2.08;;;18.20;99.90;;;;;;5063124;28;20040;-71
2021/08/19 04:42:54;;;;;;;5.80;2.05;;;18.20;99.90;;;;;;5063594;28;20044;-71
2021/08/19 04:45:19;;;;;;;6.65;1.85;;;18.10;99.90;;;;;;5063449;28;20632;-71
2021/08/19 04:47:45;;;;;;;3.55;1.70;;;18.00;99.90;;;;;;5063311;28;20060;-71
2021/08/19 04:50:11;;;;;;;4.82;1.77;;;18.00;99.90;;;;;;5062919;28;20033;-71
2021/08/19 04:52:37;;;;;;;7.28;2.63;;;17.90;99.90;;;;;;5063309;28;20048;-71
2021/08/19 04:55:03;;;;;;;4.07;1.80;;;17.80;99.90;;;;;;5063977;28;20098;-71
2021/08/19 04:57:30;;;;;;;3.60;1.50;;;17.90;99.90;;;;;;5063388;28;20037;-71
2021/08/19 04:59:55;;;;;;;4.57;2.20;;;17.90;99.90;;;;;;5063281;28;20474;-71
2021/08/19 05:02:21;;;;;;;3.78;1.70;;;17.90;99.90;;;;;;5063132;28;20093;-71
2021/08/19 05:04:47;;;;;;;4.00;1.90;;;17.90;99.90;;;;;;5063498;28;20390;-71
2021/08/19 05:07:12;;;;;;;3.50;1.70;;;17.90;99.90;;;;;;5054112;28;20182;-71
2021/08/19 05:09:38;;;;;;;5.43;1.60;;;17.80;99.90;;;;;;5062290;28;20459;-71
2021/08/19 05:12:04;;;;;;;4.00;1.90;;;17.90;99.90;;;;;;5061265;28;20682;-71
2021/08/19 05:14:30;;;;;;;3.08;1.75;;;18.10;99.90;;;;;;5061894;28;20036;-71
2021/08/19 05:16:56;;;;;;;6.18;1.75;;;18.20;99.90;;;;;;5061485;28;20044;-71
2021/08/19 05:19:21;;;;;;;3.05;1.80;;;18.10;99.90;;;;;;5043400;28;20055;-71
2021/08/19 05:21:47;;;;;;;9.13;3.60;;;17.90;99.90;;;;;;5061057;28;20048;-71
2021/08/19 05:24:13;;;;;;;10.20;3.40;;;17.80;99.90;;;;;;5060905;28;20036;-71
2021/08/19 05:26:38;;;;;;;10.70;3.50;;;17.70;99.90;;;;;;5063302;28;20037;-71
2021/08/19 05:29:04;;;;;;;6.45;2.20;;;17.80;99.90;;;;;;5063095;28;20153;-71
2021/08/19 05:31:30;;;;;;;5.40;1.75;;;17.80;99.90;;;;;;5062814;28;20066;-71
2021/08/19 05:33:55;;;;;;;4.57;1.92;;;18.00;99.90;;;;;;5067810;28;20044;-71
2021/08/19 05:36:22;;;;;;;8.50;2.83;;;18.00;99.90;;;;;;5062312;28;20033;-70
2021/08/19 05:38:47;;;;;;;5.65;1.90;;;18.00;99.90;;;;;;5062187;28;20036;-71
2021/08/19 05:41:13;;;;;;;7.30;2.33;;;18.20;99.80;;;;;;5062892;28;20032;-71
2021/08/19 05:43:39;;;;;;;5.82;2.28;;;18.10;99.90;;;;;;5063572;28;20036;-71
2021/08/19 05:46:08;;;;;;;4.68;1.90;;;18.20;99.90;;;;;;5062791;28;20048;-71
2021/08/19 05:48:33;;;;;;;4.20;2.05;;;18.20;99.90;;;;;;5064832;28;20045;-72
2021/08/19 05:50:59;;;;;;;4.15;2.15;;;17.80;99.90;;;;;;5065621;28;20043;-71
2021/08/19 05:53:25;;;;;;;24.67;6.85;;;17.70;99.90;;;;;;5062837;28;20042;-71
2021/08/19 05:55:51;;;;;;;9.75;3.92;;;17.70;99.90;;;;;;5063309;28;20465;-71
2021/08/19 05:58:17;;;;;;;6.40;2.10;;;17.80;99.90;;;;;;5062990;28;20457;-71
2021/08/19 06:00:47;;;;;;;4.28;2.08;;;17.70;99.90;;;;;;5063221;28;20028;-71
2021/08/19 06:03:15;;;;;;;5.47;2.22;;;17.70;99.90;;;;;;5062900;28;20036;-72
2021/08/19 06:05:41;;;;;;;4.22;2.08;;;17.70;99.90;;;;;;5063356;28;20036;-71
2021/08/19 06:08:08;;;;;;;5.82;2.13;;;17.90;99.90;;;;;;5063126;28;20429;-71
2021/08/19 06:10:34;;;;;;;3.85;2.13;;;18.00;99.90;;;;;;5063167;28;20024;-71
2021/08/19 06:13:00;;;;;;;4.65;2.33;;;18.10;99.90;;;;;;5062628;28;20089;-72
2021/08/19 06:15:26;;;;;;;5.10;1.90;;;18.10;99.90;;;;;;5062634;28;20122;-72
2021/08/19 06:17:52;;;;;;;4.68;2.00;;;18.30;99.90;;;;;;5065585;28;20059;-71
2021/08/19 06:20:18;;;;;;;4.88;1.80;;;18.40;99.90;;;;;;5066084;28;20045;-71
2021/08/19 06:22:44;;;;;;;8.82;2.20;;;18.40;99.90;;;;;;5066315;28;20098;-71
2021/08/19 06:25:10;;;;;;;7.32;2.22;;;18.30;99.90;;;;;;5066232;28;20032;-71
2021/08/19 06:27:36;;;;;;;8.63;2.80;;;18.50;99.90;;;;;;5066308;28;20460;-71
2021/08/19 06:30:03;;;;;;;5.18;2.45;;;18.60;99.90;;;;;;5066142;28;20036;-72
2021/08/19 06:32:29;;;;;;;4.13;2.33;;;18.80;99.90;;;;;;5066292;28;20037;-72
2021/08/19 06:34:54;;;;;;;4.32;1.80;;;19.00;99.70;;;;;;5065960;28;20044;-72
2021/08/19 06:37:20;;;;;;;4.43;2.25;;;19.20;99.10;;;;;;5065415;28;20040;-71
2021/08/19 06:39:46;;;;;;;5.45;2.10;;;19.40;98.50;;;;;;5045592;28;20123;-72
2021/08/19 06:42:11;;;;;;;5.25;2.17;;;19.50;98.40;;;;;;5067459;28;20036;-71
2021/08/19 06:44:37;;;;;;;5.60;2.10;;;19.70;99.00;;;;;;5066523;28;20036;-71
2021/08/19 06:47:03;;;;;;;10.38;3.05;;;20.10;99.70;;;;;;5066078;28;20512;-72
2021/08/19 06:49:29;;;;;;;17.30;4.63;;;20.20;99.90;;;;;;5065938;28;20128;-72
2021/08/19 06:51:54;;;;;;;9.27;3.05;;;20.30;99.50;;;;;;5064028;28;20578;-72
2021/08/19 06:54:20;;;;;;;3.85;2.25;;;20.50;99.40;;;;;;5065556;28;20486;-72
2021/08/19 06:56:46;;;;;;;5.25;2.00;;;20.70;99.10;;;;;;5065053;28;21065;-72
2021/08/19 06:59:11;;;;;;;5.78;2.13;;;20.80;99.10;;;;;;5064795;28;20556;-72
2021/08/19 07:01:37;;;;;;;4.10;2.28;;;21.50;97.90;;;;;;5065396;28;20065;-72
2021/08/19 07:04:03;;;;;;;3.95;2.13;;;22.30;96.50;;;;;;5065605;28;20032;-72
2021/08/19 07:06:29;;;;;;;3.28;2.00;;;23.50;94.40;;;;;;5069183;28;20906;-72
2021/08/19 07:08:54;;;;;;;4.55;1.95;;;25.00;92.60;;;;;;5065504;28;20048;-72
2021/08/19 07:11:20;;;;;;;5.78;2.17;;;25.70;91.40;;;;;;5064115;28;20033;-72
2021/08/19 07:13:46;;;;;;;3.70;2.05;;;26.70;90.40;;;;;;5063888;28;20046;-72
2021/08/19 07:16:11;;;;;;;7.63;2.17;;;27.50;88.90;;;;;;5063882;28;20600;-72
2021/08/19 07:18:37;;;;;;;4.88;2.00;;;28.00;87.40;;;;;;5063747;28;20040;-72
2021/08/19 07:21:03;;;;;;;8.07;2.17;;;28.00;86.60;;;;;;5063053;28;20174;-72
2021/08/19 07:23:28;;;;;;;4.55;1.88;;;27.80;86.90;;;;;;5063838;28;20139;-72
2021/08/19 07:25:54;;;;;;;3.83;1.80;;;27.80;87.40;;;;;;5064665;28;20037;-72
2021/08/19 07:28:20;;;;;;;5.57;2.10;;;28.00;87.60;;;;;;5065272;28;20044;-72
2021/08/19 07:30:45;;;;;;;6.97;2.15;;;28.40;87.20;;;;;;5058185;28;20422;-72
2021/08/19 07:33:12;;;;;;;4.40;2.38;;;29.00;87.10;;;;;;5056101;28;20041;-72
2021/08/19 07:35:37;;;;;;;4.97;1.80;;;29.00;85.90;;;;;;5045720;28;20486;-72
2021/08/19 07:38:03;;;;;;;4.22;2.00;;;28.80;87.20;;;;;;5061518;28;20040;-72
2021/08/19 07:40:31;;;;;;;3.20;1.60;;;28.90;85.60;;;;;;5063578;28;20020;-72
2021/08/19 07:42:57;;;;;;;3.45;1.80;;;28.20;86.30;;;;;;5062572;28;20064;-72
2021/08/19 07:45:25;;;;;;;4.90;1.98;;;26.20;90.10;;;;;;5063428;28;20099;-72
2021/08/19 07:47:51;;;;;;;4.40;2.03;;;24.20;92.00;;;;;;5063495;28;20102;-72
2021/08/19 07:50:18;;;;;;;6.03;2.20;;;23.10;92.80;;;;;;5044195;28;20691;-72
2021/08/19 07:52:44;;;;;;;5.85;2.25;;;22.40;93.50;;;;;;5066861;28;20520;-72
2021/08/19 07:55:11;;;;;;;4.20;1.80;;;22.10;93.80;;;;;;5074213;28;20028;-72
2021/08/19 07:57:42;;;;;;;4.45;1.95;;;21.90;94.00;;;;;;5080165;28;20036;-72
2021/08/19 08:00:08;;;;;;;6.10;2.30;;;21.90;94.30;;;;;;5085388;28;20056;-72
2021/08/19 08:02:34;;;;;;;5.65;2.30;;;21.60;94.60;;;;;;5071381;28;20115;-73
2021/08/19 08:05:00;;;;;;;5.07;1.63;;;21.70;94.90;;;;;;5064603;28;20214;-72
2021/08/19 08:07:25;;;;;;;5.13;1.90;;;21.70;93.70;;;;;;5064934;28;20052;-72
2021/08/19 08:09:51;;;;;;;3.75;1.60;;;21.80;93.50;;;;;;5046936;28;20597;-72
2021/08/19 08:12:16;;;;;;;8.60;2.35;;;21.90;92.90;;;;;;5064964;28;20117;-72
2021/08/19 08:14:42;;;;;;;5.68;1.83;;;21.90;93.80;;;;;;5064881;28;20028;-72
2021/08/19 08:17:08;;;;;;;4.80;2.33;;;21.90;93.90;;;;;;5064608;28;20036;-72
2021/08/19 08:19:33;;;;;;;6.28;2.05;;;22.00;94.10;;;;;;5064747;28;20107;-72
2021/08/19 08:21:59;;;;;;;4.07;1.85;;;22.00;94.40;;;;;;5073003;28;20037;-72
2021/08/19 08:24:25;;;;;;;4.45;2.15;;;21.90;94.20;;;;;;5073688;28;20032;-72
2021/08/19 08:26:51;;;;;;;6.22;2.70;;;21.80;94.20;;;;;;5067140;28;20394;-72
2021/08/19 08:29:19;;;;;;;7.10;2.88;;;21.90;93.90;;;;;;5064094;28;20086;-72
2021/08/19 08:31:45;;;;;;;7.60;2.20;;;21.90;94.80;;;;;;5064359;28;20159;-72
2021/08/19 08:34:11;;;;;;;6.28;2.75;;;22.20;95.40;;;;;;5064102;28;20479;-72
2021/08/19 08:36:37;;;;;;;3.70;1.90;;;22.40;94.30;;;;;;5064670;28;20040;-72
2021/08/19 08:39:05;;;;;;;3.40;1.80;;;24.60;93.00;;;;;;5063194;28;20048;-72
2021/08/19 08:41:33;;;;;;;4.82;2.22;;;26.00;91.50;;;;;;5063537;28;20127;-72
2021/08/19 08:44:00;;;;;;;4.90;2.20;;;26.80;91.20;;;;;;5064327;28;20543;-72
2021/08/19 08:46:26;;;;;;;5.40;2.65;;;27.40;90.50;;;;;;5064547;28;20463;-72
2021/08/19 08:48:58;;;;;;;6.60;2.45;;;27.30;90.30;;;;;;5063731;28;20160;-72
2021/08/19 08:51:25;;;;;;;5.28;2.10;;;26.80;90.50;;;;;;5064219;28;20088;-72
2021/08/19 08:53:51;;;;;;;5.22;1.98;;;27.10;90.70;;;;;;5063978;28;20043;-72
2021/08/19 08:56:17;;;;;;;5.35;1.98;;;27.20;89.20;;;;;;5063563;28;20422;-72
2021/08/19 08:58:44;;;;;;;4.53;2.13;;;27.10;90.00;;;;;;5063435;28;20037;-72
2021/08/19 09:01:09;;;;;;;4.97;2.13;;;27.20;89.30;;;;;;5063722;28;20032;-72
2021/08/19 09:03:35;;;;;;;4.43;2.38;;;26.70;88.60;;;;;;5064147;28;20037;-72
2021/08/19 09:06:01;;;;;;;5.43;2.17;;;26.10;90.10;;;;;;5064620;28;20048;-72
2021/08/19 09:08:27;;;;;;;4.32;2.13;;;25.60;90.30;;;;;;5063975;28;20033;-72
2021/08/19 09:11:01;;;;;;;5.38;2.10;;;25.10;90.80;;;;;;5064396;28;20526;-72
2021/08/19 09:13:29;;;;;;;4.97;1.63;;;25.00;91.20;;;;;;5063084;28;20237;-72
2021/08/19 09:15:55;;;;;;;6.28;3.65;;;24.20;91.50;;;;;;5064086;28;20056;-72
2021/08/19 09:18:33;;;;;;;5.28;2.92;;;24.10;92.30;;;;;;5063951;28;20086;-72
2021/08/19 09:20:59;;;;;;;4.57;2.20;;;24.10;92.50;;;;;;5064053;28;20489;-72
2021/08/19 09:23:25;;;;;;;4.32;2.05;;;24.40;92.20;;;;;;5065613;28;20402;-72
2021/08/19 09:25:51;;;;;;;8.15;2.45;;;24.50;91.90;;;;;;5063301;28;20034;-72
2021/08/19 09:28:25;;;;;;;4.90;1.95;;;24.50;91.50;;;;;;5063393;28;20071;-73
2021/08/19 09:31:05;;;;;;;3.45;1.83;;;24.30;92.30;;;;;;5063226;28;20032;-72
2021/08/19 09:33:43;;;;;;;5.38;2.78;;;24.20;91.80;;;;;;5062925;28;20036;-72
2021/08/19 09:36:09;;;;;;;3.85;1.80;;;24.00;91.90;;;;;;5063147;28;20039;-72
2021/08/19 09:38:42;;;;;;;4.22;2.03;;;24.10;92.30;;;;;;5057092;28;20033;-72
2021/08/19 09:41:08;;;;;;;3.80;2.17;;;24.20;91.20;;;;;;5064941;28;20025;-72
2021/08/19 09:43:46;;;;;;;4.15;2.22;;;24.50;91.10;;;;;;5062774;28;20048;-72
2021/08/19 09:46:16;;;;;;;3.90;1.73;;;24.60;90.80;;;;;;5063147;28;20041;-73
2021/08/19 09:48:45;;;;;;;3.88;2.15;;;24.90;90.70;;;;;;5062112;28;20051;-72
2021/08/19 09:51:29;;;;;;;4.43;2.10;;;24.90;90.80;;;;;;5061829;28;20467;-72
2021/08/19 09:53:57;;;;;;;;;;;25.00;88.70;;;;;;5066195;28;20102;-72
2021/08/19 09:56:38;;;;;;;4.13;1.85;;;25.00;87.50;;;;;;5065509;28;19908;-72
2021/08/19 09:59:21;;;;;;;6.78;1.80;;;25.20;88.50;;;;;;5064368;28;20024;-73
2021/08/19 10:01:48;;;;;;;5.20;1.98;;;25.50;86.70;;;;;;5064608;28;20040;-72
2021/08/19 10:04:15;;;;;;;3.70;1.83;;;25.70;86.40;;;;;;5066244;28;20029;-72
2021/08/19 10:06:41;;;;;;;4.82;2.10;;;25.70;86.10;;;;;;5066333;28;20028;-72
2021/08/19 10:09:07;;;;;;;5.63;1.90;;;25.50;88.70;;;;;;5065892;28;20040;-72
2021/08/19 10:11:34;;;;;;;5.85;2.08;;;25.70;89.50;;;;;;5066327;28;20380;-73
2021/08/19 10:14:03;;;;;;;4.22;1.58;;;25.70;90.00;;;;;;5066319;28;20036;-72
2021/08/19 10:16:34;;;;;;;5.10;2.15;;;25.80;88.10;;;;;;5066357;28;20033;-72
2021/08/19 10:19:12;;;;;;;5.13;2.00;;;25.80;87.60;;;;;;5066582;28;20032;-72
2021/08/19 10:21:45;;;;;;;3.33;1.50;;;25.70;86.10;;;;;;5066326;28;20036;-72
2021/08/19 10:24:11;;;;;;;5.03;1.98;;;25.70;88.30;;;;;;5066478;28;20112;-73
2021/08/19 10:26:37;;;;;;;4.13;1.88;;;25.80;88.90;;;;;;5066131;28;20048;-72
2021/08/19 10:29:04;;;;;;;4.10;1.98;;;25.80;88.10;;;;;;5066069;28;20129;-72
2021/08/19 10:31:43;;;;;;;4.05;1.60;;;25.90;87.70;;;;;;5066439;28;20083;-72
2021/08/19 10:34:13;;;;;;;11.20;1.83;;;25.70;86.90;;;;;;5066330;28;20032;-72
2021/08/19 10:36:41;;;;;;;5.57;1.67;;;26.00;89.50;;;;;;5066266;28;20060;-72
2021/08/19 10:39:19;;;;;;;7.15;1.50;;;26.30;88.30;;;;;;5065930;28;20041;-72
2021/08/19 10:41:52;;;;;;;6.35;2.03;;;26.30;86.20;;;;;;5065846;28;20121;-72
2021/08/19 10:44:17;;;;;;;4.25;1.80;;;26.20;84.70;;;;;;5071751;28;20095;-72
2021/08/19 10:46:51;;;;;;;3.53;1.80;;;26.10;84.60;;;;;;5085985;28;20131;-72
2021/08/19 10:49:30;;;;;;;3.45;1.55;;;26.10;86.00;;;;;;5067670;28;20079;-72
2021/08/19 10:52:16;;;;;;;6.40;1.85;;;26.10;86.40;;;;;;5066168;28;20064;-72
2021/08/19 10:54:46;;;;;;;3.50;1.52;;;26.40;87.70;;;;;;5047649;28;20382;-73
2021/08/19 10:57:24;;;;;;;6.82;1.98;;;26.50;86.70;;;;;;5065469;28;20120;-73
2021/08/19 11:00:01;;;;;;;4.50;1.48;;;26.60;85.20;;;;;;5063973;28;20490;-72
2021/08/19 11:02:55;;;;;;;4.95;1.70;;;26.70;86.10;;;;;;5047208;28;20044;-72
2021/08/19 11:05:20;;;;;;;5.95;1.55;;;26.70;82.90;;;;;;5062392;28;20641;-72
2021/08/19 11:07:51;;;;;;;3.38;1.48;;;26.90;83.80;;;;;;5065443;28;20048;-73
2021/08/19 11:10:22;;;;;;;4.85;1.85;;;27.00;82.40;;;;;;5065418;28;20041;-72
2021/08/19 11:12:49;;;;;;;3.25;1.20;;;27.10;85.50;;;;;;5065351;28;20119;-72
2021/08/19 11:15:14;;;;;;;2.78;1.35;;;27.10;79.90;;;;;;5064849;28;20589;-72
2021/08/19 11:17:54;;;;;;;4.53;1.98;;;27.10;81.70;;;;;;5065606;28;20078;-72
2021/08/19 11:20:40;;;;;;;3.08;1.85;;;27.10;82.20;;;;;;5065800;28;20574;-72
2021/08/19 11:23:12;;;;;;;8.13;2.13;;;27.20;82.40;;;;;;5064771;28;20039;-72
2021/08/19 11:25:42;;;;;;;7.90;1.83;;;27.30;82.50;;;;;;5065429;28;20059;-72
2021/08/19 11:28:13;;;;;;;3.28;1.83;;;27.30;81.90;;;;;;5065177;28;20040;-72
2021/08/19 11:30:43;;;;;;;3.33;1.67;;;27.20;82.50;;;;;;5065229;28;20035;-71
2021/08/19 11:33:13;;;;;;;2.85;1.60;;;27.10;82.00;;;;;;5065536;28;20032;-72
2021/08/19 11:35:41;;;;;;;3.63;1.92;;;27.30;83.30;;;;;;5064800;28;20032;-72
2021/08/19 11:38:14;;;;;;;3.80;1.85;;;27.20;82.10;;;;;;5064784;28;20453;-72
2021/08/19 11:40:42;;;;;;;5.15;1.75;;;27.20;83.40;;;;;;5064835;28;20036;-72
2021/08/19 11:43:31;;;;;;;3.60;1.50;;;27.30;81.60;;;;;;5064843;28;20103;-72
2021/08/19 11:46:06;;;;;;;6.55;2.00;;;27.20;82.10;;;;;;5065533;28;20059;-73
2021/08/19 11:48:34;;;;;;;8.43;1.80;;;27.10;85.20;;;;;;5073889;28;20051;-72
2021/08/19 11:51:03;;;;;;;4.57;2.20;;;27.40;82.80;;;;;;5064378;28;20089;-72
2021/08/19 11:53:29;;;;;;;9.43;2.17;;;27.30;83.30;;;;;;5064064;28;20613;-72
2021/08/19 11:55:56;;;;;;;3.63;1.73;;;27.60;82.40;;;;;;5064156;28;20025;-74
2021/08/19 11:58:25;;;;;;;5.18;1.60;;;27.80;82.50;;;;;;5063140;28;20036;-72
2021/08/19 12:00:58;;;;;;;5.95;1.92;;;27.80;81.70;;;;;;5063422;28;20032;-72
2021/08/19 12:03:25;;;;;;;14.30;2.17;;;27.80;84.30;;;;;;5063032;28;20041;-72
2021/08/19 12:06:14;;;;;;;4.53;1.65;;;27.70;81.70;;;;;;5063012;28;20059;-72
2021/08/19 12:08:52;;;;;;;5.35;1.70;;;27.70;81.90;;;;;;5062423;28;20052;-73
2021/08/19 12:11:25;;;;;;;4.75;1.92;;;27.50;81.10;;;;;;5063257;28;20029;-72
2021/08/19 12:13:52;;;;;;;4.28;2.10;;;27.50;82.30;;;;;;5064288;28;20113;-72
2021/08/19 12:16:20;;;;;;;2.47;1.50;;;27.70;83.10;;;;;;5064289;28;20035;-72
2021/08/19 12:19:08;;;;;;;5.68;1.58;;;28.00;83.80;;;;;;5063901;28;20032;-72
2021/08/19 12:21:56;;;;;;;6.40;2.33;;;28.10;82.10;;;;;;5064098;28;20493;-72
2021/08/19 12:24:34;;;;;;;4.38;2.25;;;28.10;82.20;;;;;;5064208;28;20060;-72
2021/08/19 12:27:05;;;;;;;4.13;2.00;;;27.80;81.50;;;;;;5063541;28;20640;-72
2021/08/19 12:29:36;;;;;;;5.35;1.95;;;27.90;81.90;;;;;;5063635;28;20048;-72
2021/08/19 12:32:02;;;;;;;4.28;1.92;;;28.00;82.80;;;;;;5063536;28;20040;-72
2021/08/19 12:34:29;;;;;;;4.20;2.03;;;28.00;80.80;;;;;;5063611;28;20074;-72
2021/08/19 12:37:08;;;;;;;5.82;1.83;;;27.90;80.50;;;;;;5063937;28;20032;-72
2021/08/19 12:39:44;;;;;;;4.97;2.08;;;27.90;81.80;;;;;;5064361;28;20068;-72
2021/08/19 12:42:10;;;;;;;3.83;1.80;;;27.90;83.30;;;;;;5078454;28;20052;-72
2021/08/19 12:44:38;;;;;;;14.45;2.25;;;28.10;81.00;;;;;;5064267;28;20379;-72
2021/08/19 12:47:04;;;;;;;4.40;1.73;;;28.20;83.60;;;;;;5064102;28;20050;-72
2021/08/19 12:49:38;;;;;;;4.43;1.88;;;28.10;81.10;;;;;;5064203;28;20513;-72
2021/08/19 12:52:17;;;;;;;5.07;1.85;;;28.20;80.80;;;;;;5063859;28;20113;-73